sensor_id;sensor_type;location;lat;lon;timestamp;P1;P2;P0
55449;PMS5003;41318;58.724;50.180;2023-02-01T00:02:24;16.80;16.40;10.80
55449;PMS5003;41318;58.724;50.180;2023-02-01T00:04:55;19.20;17.80;11.00
55449;PMS5003;41318;58.724;50.180;2023-02-01T00:07:26;11.20;11.20;7.00
55449;PMS5003;41318;58.724;50.180;2023-02-01T00:09:57;12.40;12.40;7.00
55449;PMS5003;41318;58.724;50.180;2023-02-01T00:12:29;8.00;7.80;6.20
55449;PMS5003;41318;58.724;50.180;2023-02-01T00:15:18;18.00;14.60;8.40
55449;PMS5003;41318;58.724;50.180;2023-02-01T00:17:53;9.80;9.40;5.80
55449;PMS5003;41318;58.724;50.180;2023-02-01T00:20:25;15.00;15.00;9.20
55449;PMS5003;41318;58.724;50.180;2023-02-01T00:22:56;15.00;15.00;11.00
55449;PMS5003;41318;58.724;50.180;2023-02-01T00:25:27;13.20;13.20;8.20
55449;PMS5003;41318;58.724;50.180;2023-02-01T00:27:58;14.80;13.80;7.00
55449;PMS5003;41318;58.724;50.180;2023-02-01T00:30:30;16.60;16.60;9.00
55449;PMS5003;41318;58.724;50.180;2023-02-01T00:33:01;14.20;14.00;6.80
55449;PMS5003;41318;58.724;50.180;2023-02-01T00:35:33;12.60;12.60;7.00
55449;PMS5003;41318;58.724;50.180;2023-02-01T00:38:23;11.20;11.20;5.00
55449;PMS5003;41318;58.724;50.180;2023-02-01T00:41:01;14.40;14.00;8.80
55449;PMS5003;41318;58.724;50.180;2023-02-01T00:43:51;14.00;12.80;8.00
55449;PMS5003;41318;58.724;50.180;2023-02-01T00:46:22;10.20;10.20;7.00
55449;PMS5003;41318;58.724;50.180;2023-02-01T00:48:53;11.40;11.40;8.00
55449;PMS5003;41318;58.724;50.180;2023-02-01T00:51:43;8.40;8.40;3.60
55449;PMS5003;41318;58.724;50.180;2023-02-01T00:54:14;15.00;14.00;9.20
55449;PMS5003;41318;58.724;50.180;2023-02-01T00:56:45;12.40;12.20;8.20
55449;PMS5003;41318;58.724;50.180;2023-02-01T00:59:16;11.40;10.40;6.60
55449;PMS5003;41318;58.724;50.180;2023-02-01T01:01:47;13.60;12.80;8.40
55449;PMS5003;41318;58.724;50.180;2023-02-01T01:04:18;13.20;12.00;7.60
55449;PMS5003;41318;58.724;50.180;2023-02-01T01:07:07;14.00;14.00;8.60
55449;PMS5003;41318;58.724;50.180;2023-02-01T01:09:38;12.00;11.40;7.60
55449;PMS5003;41318;58.724;50.180;2023-02-01T01:12:09;14.40;14.00;8.20
55449;PMS5003;41318;58.724;50.180;2023-02-01T01:14:40;12.80;12.80;7.20
55449;PMS5003;41318;58.724;50.180;2023-02-01T01:17:11;15.80;11.80;4.80
55449;PMS5003;41318;58.724;50.180;2023-02-01T01:19:42;17.00;17.00;8.60
55449;PMS5003;41318;58.724;50.180;2023-02-01T01:22:13;8.80;8.80;4.20
55449;PMS5003;41318;58.724;50.180;2023-02-01T01:24:45;15.20;14.40;7.20
55449;PMS5003;41318;58.724;50.180;2023-02-01T01:27:16;13.80;13.80;7.00
55449;PMS5003;41318;58.724;50.180;2023-02-01T01:29:53;15.60;15.60;10.80
55449;PMS5003;41318;58.724;50.180;2023-02-01T01:32:24;16.80;16.00;9.20
55449;PMS5003;41318;58.724;50.180;2023-02-01T01:34:55;12.40;12.20;7.40
55449;PMS5003;41318;58.724;50.180;2023-02-01T01:37:26;15.60;15.60;8.00
55449;PMS5003;41318;58.724;50.180;2023-02-01T01:39:58;16.80;16.80;9.40
55449;PMS5003;41318;58.724;50.180;2023-02-01T01:42:29;18.00;17.00;9.60
55449;PMS5003;41318;58.724;50.180;2023-02-01T01:45:29;17.80;17.00;10.60
55449;PMS5003;41318;58.724;50.180;2023-02-01T01:48:05;7.60;7.20;4.80
55449;PMS5003;41318;58.724;50.180;2023-02-01T01:50:43;14.60;14.60;9.80
55449;PMS5003;41318;58.724;50.180;2023-02-01T01:53:16;10.60;10.60;7.20
55449;PMS5003;41318;58.724;50.180;2023-02-01T01:56:07;16.80;16.20;9.40
55449;PMS5003;41318;58.724;50.180;2023-02-01T01:58:39;13.00;11.60;8.60
55449;PMS5003;41318;58.724;50.180;2023-02-01T02:01:10;14.60;14.00;7.80
55449;PMS5003;41318;58.724;50.180;2023-02-01T02:03:42;18.20;17.40;8.40
55449;PMS5003;41318;58.724;50.180;2023-02-01T02:06:59;16.80;15.40;8.20
55449;PMS5003;41318;58.724;50.180;2023-02-01T02:09:05;12.40;11.80;7.00
55449;PMS5003;41318;58.724;50.180;2023-02-01T02:11:36;14.40;13.20;7.60
55449;PMS5003;41318;58.724;50.180;2023-02-01T02:14:08;15.40;14.40;8.40
55449;PMS5003;41318;58.724;50.180;2023-02-01T02:35:26;73.00;55.00;27.00
55449;PMS5003;41318;58.724;50.180;2023-02-01T02:41:21;16.60;16.40;8.60
55449;PMS5003;41318;58.724;50.180;2023-02-01T02:47:26;17.00;16.00;11.20
55449;PMS5003;41318;58.724;50.180;2023-02-01T02:53:00;15.00;15.00;8.00
55449;PMS5003;41318;58.724;50.180;2023-02-01T02:56:11;23.20;22.60;13.60
55449;PMS5003;41318;58.724;50.180;2023-02-01T02:59:02;19.20;18.20;11.60
55449;PMS5003;41318;58.724;50.180;2023-02-01T03:01:53;28.00;26.00;14.80
55449;PMS5003;41318;58.724;50.180;2023-02-01T03:04:43;23.20;17.60;7.40
55449;PMS5003;41318;58.724;50.180;2023-02-01T03:07:42;21.20;20.00;11.60
55449;PMS5003;41318;58.724;50.180;2023-02-01T03:10:06;13.60;12.40;8.00
55449;PMS5003;41318;58.724;50.180;2023-02-01T03:12:39;13.20;13.20;8.20
55449;PMS5003;41318;58.724;50.180;2023-02-01T03:18:39;95.80;72.80;43.20
55449;PMS5003;41318;58.724;50.180;2023-02-01T03:21:35;21.20;19.80;11.00
55449;PMS5003;41318;58.724;50.180;2023-02-01T03:24:09;15.80;14.80;9.20
55449;PMS5003;41318;58.724;50.180;2023-02-01T03:26:45;15.00;15.00;8.00
55449;PMS5003;41318;58.724;50.180;2023-02-01T03:29:22;19.60;19.60;13.40
55449;PMS5003;41318;58.724;50.180;2023-02-01T03:31:55;18.00;18.00;10.80
55449;PMS5003;41318;58.724;50.180;2023-02-01T03:34:26;9.00;8.40;5.40
55449;PMS5003;41318;58.724;50.180;2023-02-01T03:36:58;17.80;15.80;9.20
55449;PMS5003;41318;58.724;50.180;2023-02-01T03:39:52;16.20;15.00;8.40
55449;PMS5003;41318;58.724;50.180;2023-02-01T03:42:27;22.00;22.00;13.60
55449;PMS5003;41318;58.724;50.180;2023-02-01T03:45:18;17.80;17.20;10.80
55449;PMS5003;41318;58.724;50.180;2023-02-01T03:47:53;17.60;17.60;9.20
55449;PMS5003;41318;58.724;50.180;2023-02-01T03:50:27;20.00;18.40;11.00
55449;PMS5003;41318;58.724;50.180;2023-02-01T03:53:11;11.20;11.20;9.80
55449;PMS5003;41318;58.724;50.180;2023-02-01T03:55:43;11.40;11.20;8.20
55449;PMS5003;41318;58.724;50.180;2023-02-01T03:58:16;13.60;13.40;9.20
55449;PMS5003;41318;58.724;50.180;2023-02-01T04:00:53;14.40;14.40;5.20
55449;PMS5003;41318;58.724;50.180;2023-02-01T04:03:25;10.40;10.40;5.20
55449;PMS5003;41318;58.724;50.180;2023-02-01T04:05:56;12.00;11.80;8.00
55449;PMS5003;41318;58.724;50.180;2023-02-01T04:08:31;19.20;19.20;11.40
55449;PMS5003;41318;58.724;50.180;2023-02-01T04:11:02;18.00;18.00;10.20
55449;PMS5003;41318;58.724;50.180;2023-02-01T04:13:33;17.75;16.25;9.00
55449;PMS5003;41318;58.724;50.180;2023-02-01T04:16:04;22.40;21.00;9.40
55449;PMS5003;41318;58.724;50.180;2023-02-01T04:18:35;28.60;28.00;19.60
55449;PMS5003;41318;58.724;50.180;2023-02-01T04:21:06;23.00;21.20;11.20
55449;PMS5003;41318;58.724;50.180;2023-02-01T04:23:37;17.75;17.75;11.00
55449;PMS5003;41318;58.724;50.180;2023-02-01T04:26:08;21.40;21.40;11.80
55449;PMS5003;41318;58.724;50.180;2023-02-01T04:28:39;18.20;15.60;8.00
55449;PMS5003;41318;58.724;50.180;2023-02-01T04:31:28;16.20;15.40;8.00
55449;PMS5003;41318;58.724;50.180;2023-02-01T04:33:59;22.80;21.80;12.20
55449;PMS5003;41318;58.724;50.180;2023-02-01T04:36:30;19.00;19.00;11.60
55449;PMS5003;41318;58.724;50.180;2023-02-01T04:39:01;21.00;18.50;11.25
55449;PMS5003;41318;58.724;50.180;2023-02-01T04:41:32;19.00;19.00;11.80
55449;PMS5003;41318;58.724;50.180;2023-02-01T04:44:03;27.20;26.40;19.00
55449;PMS5003;41318;58.724;50.180;2023-02-01T04:46:35;20.40;20.40;9.80
55449;PMS5003;41318;58.724;50.180;2023-02-01T04:49:05;19.40;19.40;11.80
55449;PMS5003;41318;58.724;50.180;2023-02-01T04:51:36;18.75;18.75;13.00
55449;PMS5003;41318;58.724;50.180;2023-02-01T04:54:08;22.20;19.60;11.00
55449;PMS5003;41318;58.724;50.180;2023-02-01T05:01:05;19.80;19.40;11.60
55449;PMS5003;41318;58.724;50.180;2023-02-01T05:03:37;15.20;14.00;8.60
55449;PMS5003;41318;58.724;50.180;2023-02-01T05:06:08;24.00;21.80;13.40
55449;PMS5003;41318;58.724;50.180;2023-02-01T05:13:01;31.80;30.20;19.80
55449;PMS5003;41318;58.724;50.180;2023-02-01T05:15:51;21.60;21.40;13.40
55449;PMS5003;41318;58.724;50.180;2023-02-01T05:18:22;19.20;19.20;11.40
55449;PMS5003;41318;58.724;50.180;2023-02-01T05:20:53;20.60;19.60;10.00
55449;PMS5003;41318;58.724;50.180;2023-02-01T05:23:24;20.20;19.00;12.00
55449;PMS5003;41318;58.724;50.180;2023-02-01T05:26:01;24.40;24.00;15.20
55449;PMS5003;41318;58.724;50.180;2023-02-01T05:28:51;26.40;24.20;12.20
55449;PMS5003;41318;58.724;50.180;2023-02-01T05:31:22;22.60;22.20;15.00
55449;PMS5003;41318;58.724;50.180;2023-02-01T05:33:53;35.60;26.80;15.60
55449;PMS5003;41318;58.724;50.180;2023-02-01T05:36:42;26.60;26.20;13.20
55449;PMS5003;41318;58.724;50.180;2023-02-01T05:39:13;26.25;26.25;20.50
55449;PMS5003;41318;58.724;50.180;2023-02-01T05:41:44;16.60;16.20;8.60
55449;PMS5003;41318;58.724;50.180;2023-02-01T05:44:34;35.20;32.20;20.40
55449;PMS5003;41318;58.724;50.180;2023-02-01T05:47:05;27.40;25.20;15.80
55449;PMS5003;41318;58.724;50.180;2023-02-01T05:49:36;24.75;23.00;14.00
55449;PMS5003;41318;58.724;50.180;2023-02-01T05:52:25;14.20;14.20;12.40
55449;PMS5003;41318;58.724;50.180;2023-02-01T05:54:56;18.00;15.50;8.25
55449;PMS5003;41318;58.724;50.180;2023-02-01T06:01:50;58.20;48.40;29.20
55449;PMS5003;41318;58.724;50.180;2023-02-01T06:04:20;19.00;18.00;12.00
55449;PMS5003;41318;58.724;50.180;2023-02-01T06:06:51;21.00;19.80;13.00
55449;PMS5003;41318;58.724;50.180;2023-02-01T06:09:22;33.00;30.75;20.50
55449;PMS5003;41318;58.724;50.180;2023-02-01T06:11:53;32.25;32.00;16.75
55449;PMS5003;41318;58.724;50.180;2023-02-01T06:14:25;30.80;30.40;19.60
55449;PMS5003;41318;58.724;50.180;2023-02-01T06:16:56;24.60;22.80;14.60
55449;PMS5003;41318;58.724;50.180;2023-02-01T06:19:27;26.25;26.25;15.25
55449;PMS5003;41318;58.724;50.180;2023-02-01T06:22:17;25.40;25.20;16.00
55449;PMS5003;41318;58.724;50.180;2023-02-01T06:24:48;28.75;24.75;16.50
55449;PMS5003;41318;58.724;50.180;2023-02-01T06:27:19;20.50;16.00;12.00
55449;PMS5003;41318;58.724;50.180;2023-02-01T06:29:50;22.00;20.25;12.25
55449;PMS5003;41318;58.724;50.180;2023-02-01T06:32:23;24.00;23.60;12.20
55449;PMS5003;41318;58.724;50.180;2023-02-01T06:34:55;35.20;31.60;20.00
55449;PMS5003;41318;58.724;50.180;2023-02-01T06:37:27;28.00;27.40;19.40
55449;PMS5003;41318;58.724;50.180;2023-02-01T06:40:00;25.20;23.60;14.60
55449;PMS5003;41318;58.724;50.180;2023-02-01T06:42:31;19.20;18.00;11.80
55449;PMS5003;41318;58.724;50.180;2023-02-01T06:45:02;59.20;50.20;30.40
55449;PMS5003;41318;58.724;50.180;2023-02-01T06:47:34;26.20;23.60;14.20
55449;PMS5003;41318;58.724;50.180;2023-02-01T06:50:05;16.00;14.75;8.50
55449;PMS5003;41318;58.724;50.180;2023-02-01T06:52:54;21.60;21.00;14.00
55449;PMS5003;41318;58.724;50.180;2023-02-01T06:55:54;12.40;11.00;6.40
55449;PMS5003;41318;58.724;50.180;2023-02-01T06:58:29;21.60;21.60;13.60
55449;PMS5003;41318;58.724;50.180;2023-02-01T07:01:04;20.20;18.80;9.80
55449;PMS5003;41318;58.724;50.180;2023-02-01T07:03:35;29.40;28.20;15.60
55449;PMS5003;41318;58.724;50.180;2023-02-01T07:06:07;28.40;25.80;18.00
55449;PMS5003;41318;58.724;50.180;2023-02-01T07:08:38;46.80;42.60;24.00
55449;PMS5003;41318;58.724;50.180;2023-02-01T07:11:10;32.20;31.20;14.60
55449;PMS5003;41318;58.724;50.180;2023-02-01T07:13:41;31.80;31.00;18.20
55449;PMS5003;41318;58.724;50.180;2023-02-01T07:16:13;29.60;29.40;19.60
55449;PMS5003;41318;58.724;50.180;2023-02-01T07:18:45;13.60;11.40;1.00
55449;PMS5003;41318;58.724;50.180;2023-02-01T07:21:17;26.00;25.60;16.60
55449;PMS5003;41318;58.724;50.180;2023-02-01T07:23:48;23.20;23.20;13.00
55449;PMS5003;41318;58.724;50.180;2023-02-01T07:26:19;22.00;20.40;14.40
55449;PMS5003;41318;58.724;50.180;2023-02-01T07:28:50;16.00;16.00;9.00
55449;PMS5003;41318;58.724;50.180;2023-02-01T07:31:21;22.80;19.80;10.20
55449;PMS5003;41318;58.724;50.180;2023-02-01T07:33:53;16.60;16.40;6.00
55449;PMS5003;41318;58.724;50.180;2023-02-01T07:36:25;27.20;23.60;12.80
55449;PMS5003;41318;58.724;50.180;2023-02-01T07:39:14;25.20;22.40;11.80
55449;PMS5003;41318;58.724;50.180;2023-02-01T07:46:09;20.40;20.40;12.00
55449;PMS5003;41318;58.724;50.180;2023-02-01T07:48:40;19.20;19.20;13.00
55449;PMS5003;41318;58.724;50.180;2023-02-01T07:51:30;12.20;12.20;8.00
55449;PMS5003;41318;58.724;50.180;2023-02-01T07:58:24;13.20;13.20;6.80
55449;PMS5003;41318;58.724;50.180;2023-02-01T08:00:56;19.20;18.80;12.80
55449;PMS5003;41318;58.724;50.180;2023-02-01T08:03:46;19.40;18.40;11.40
55449;PMS5003;41318;58.724;50.180;2023-02-01T08:06:17;17.20;16.60;10.00
55449;PMS5003;41318;58.724;50.180;2023-02-01T08:08:50;19.20;17.40;10.20
55449;PMS5003;41318;58.724;50.180;2023-02-01T08:11:21;17.40;16.20;9.00
55449;PMS5003;41318;58.724;50.180;2023-02-01T08:13:55;18.20;18.00;11.00
55449;PMS5003;41318;58.724;50.180;2023-02-01T08:16:44;18.60;18.60;12.00
55449;PMS5003;41318;58.724;50.180;2023-02-01T08:19:15;19.20;18.40;10.60
55449;PMS5003;41318;58.724;50.180;2023-02-01T08:21:46;19.25;19.00;13.75
55449;PMS5003;41318;58.724;50.180;2023-02-01T08:24:19;23.60;23.00;13.20
55449;PMS5003;41318;58.724;50.180;2023-02-01T08:31:15;20.20;20.20;13.60
55449;PMS5003;41318;58.724;50.180;2023-02-01T08:33:59;18.20;18.20;13.00
55449;PMS5003;41318;58.724;50.180;2023-02-01T08:36:31;17.80;17.80;10.40
55449;PMS5003;41318;58.724;50.180;2023-02-01T08:39:02;18.20;18.20;12.80
55449;PMS5003;41318;58.724;50.180;2023-02-01T08:41:36;24.00;23.60;14.80
55449;PMS5003;41318;58.724;50.180;2023-02-01T08:44:09;27.20;26.00;14.20
55449;PMS5003;41318;58.724;50.180;2023-02-01T08:46:41;21.60;21.40;13.00
55449;PMS5003;41318;58.724;50.180;2023-02-01T08:49:14;22.60;22.00;10.00
55449;PMS5003;41318;58.724;50.180;2023-02-01T08:51:45;21.25;18.00;10.00
55449;PMS5003;41318;58.724;50.180;2023-02-01T08:54:34;20.60;19.20;13.80
55449;PMS5003;41318;58.724;50.180;2023-02-01T08:57:05;16.40;15.40;8.20
55449;PMS5003;41318;58.724;50.180;2023-02-01T08:59:36;22.75;22.25;14.00
55449;PMS5003;41318;58.724;50.180;2023-02-01T09:02:09;27.00;25.20;17.00
55449;PMS5003;41318;58.724;50.180;2023-02-01T09:04:42;20.00;20.00;15.00
55449;PMS5003;41318;58.724;50.180;2023-02-01T09:07:13;25.60;24.40;15.20
55449;PMS5003;41318;58.724;50.180;2023-02-01T09:09:44;26.00;26.00;14.80
55449;PMS5003;41318;58.724;50.180;2023-02-01T09:12:15;23.20;22.20;13.20
55449;PMS5003;41318;58.724;50.180;2023-02-01T09:14:46;28.00;26.60;15.40
55449;PMS5003;41318;58.724;50.180;2023-02-01T09:17:17;22.50;20.50;13.75
55449;PMS5003;41318;58.724;50.180;2023-02-01T09:19:48;18.25;18.00;11.50
55449;PMS5003;41318;58.724;50.180;2023-02-01T09:22:19;29.25;28.75;18.75
55449;PMS5003;41318;58.724;50.180;2023-02-01T09:24:52;27.20;25.40;15.40
55449;PMS5003;41318;58.724;50.180;2023-02-01T09:27:23;20.40;20.20;15.00
55449;PMS5003;41318;58.724;50.180;2023-02-01T09:29:54;20.20;20.20;12.40
55449;PMS5003;41318;58.724;50.180;2023-02-01T09:32:25;13.80;12.20;9.00
55449;PMS5003;41318;58.724;50.180;2023-02-01T09:34:56;21.25;21.00;13.50
55449;PMS5003;41318;58.724;50.180;2023-02-01T09:37:27;11.25;11.00;9.00
55449;PMS5003;41318;58.724;50.180;2023-02-01T09:39:58;16.75;16.75;12.50
55449;PMS5003;41318;58.724;50.180;2023-02-01T09:45:30;14.80;14.80;10.00
55449;PMS5003;41318;58.724;50.180;2023-02-01T09:59:42;14.00;14.00;10.60
55449;PMS5003;41318;58.724;50.180;2023-02-01T10:14:59;12.20;12.20;7.00
55449;PMS5003;41318;58.724;50.180;2023-02-01T10:27:19;14.60;14.00;10.00
55449;PMS5003;41318;58.724;50.180;2023-02-01T10:29:52;15.00;14.00;10.00
55449;PMS5003;41318;58.724;50.180;2023-02-01T10:32:29;18.60;17.60;12.60
55449;PMS5003;41318;58.724;50.180;2023-02-01T10:39:23;25.40;25.40;17.20
55449;PMS5003;41318;58.724;50.180;2023-02-01T10:41:55;12.20;11.80;7.20
55449;PMS5003;41318;58.724;50.180;2023-02-01T10:48:50;14.40;14.20;10.00
55449;PMS5003;41318;58.724;50.180;2023-02-01T10:51:26;13.80;13.80;9.40
55449;PMS5003;41318;58.724;50.180;2023-02-01T10:54:20;16.60;14.80;8.00
55449;PMS5003;41318;58.724;50.180;2023-02-01T10:56:51;12.40;10.20;6.00
55449;PMS5003;41318;58.724;50.180;2023-02-01T10:59:24;10.80;9.60;5.80
55449;PMS5003;41318;58.724;50.180;2023-02-01T11:01:59;18.00;17.00;11.80
55449;PMS5003;41318;58.724;50.180;2023-02-01T11:04:33;23.60;23.40;17.40
55449;PMS5003;41318;58.724;50.180;2023-02-01T11:09:50;19.40;18.80;12.60
55449;PMS5003;41318;58.724;50.180;2023-02-01T11:12:39;22.80;22.60;13.80
55449;PMS5003;41318;58.724;50.180;2023-02-01T11:15:14;21.00;21.00;11.75
55449;PMS5003;41318;58.724;50.180;2023-02-01T11:18:15;22.40;22.40;15.40
55449;PMS5003;41318;58.724;50.180;2023-02-01T11:21:05;21.40;19.60;12.40
55449;PMS5003;41318;58.724;50.180;2023-02-01T11:23:44;23.20;23.20;16.40
55449;PMS5003;41318;58.724;50.180;2023-02-01T11:26:25;19.60;19.00;12.40
55449;PMS5003;41318;58.724;50.180;2023-02-01T11:29:01;19.60;19.20;11.00
55449;PMS5003;41318;58.724;50.180;2023-02-01T11:31:33;26.80;26.40;15.40
55449;PMS5003;41318;58.724;50.180;2023-02-01T11:34:06;26.20;25.80;15.40
55449;PMS5003;41318;58.724;50.180;2023-02-01T11:36:39;32.80;32.80;21.60
55449;PMS5003;41318;58.724;50.180;2023-02-01T11:39:24;23.80;23.00;14.40
55449;PMS5003;41318;58.724;50.180;2023-02-01T11:44:34;35.00;34.00;24.80
55449;PMS5003;41318;58.724;50.180;2023-02-01T11:47:23;26.00;26.00;21.60
55449;PMS5003;41318;58.724;50.180;2023-02-01T11:49:55;50.80;42.40;29.20
55449;PMS5003;41318;58.724;50.180;2023-02-01T11:58:01;42.40;37.40;20.80
55449;PMS5003;41318;58.724;50.180;2023-02-01T12:12:24;26.00;24.80;17.00
55449;PMS5003;41318;58.724;50.180;2023-02-01T12:15:07;38.80;34.60;19.80
55449;PMS5003;41318;58.724;50.180;2023-02-01T12:31:01;25.25;22.00;13.50
55449;PMS5003;41318;58.724;50.180;2023-02-01T12:36:14;48.75;42.00;24.50
55449;PMS5003;41318;58.724;50.180;2023-02-01T12:47:32;33.80;33.80;20.80
55449;PMS5003;41318;58.724;50.180;2023-02-01T12:50:12;45.20;41.20;21.60
55449;PMS5003;41318;58.724;50.180;2023-02-01T12:52:45;39.80;34.60;20.20
55449;PMS5003;41318;58.724;50.180;2023-02-01T12:57:52;44.00;39.80;22.20
55449;PMS5003;41318;58.724;50.180;2023-02-01T13:00:41;38.80;34.80;19.20
55449;PMS5003;41318;58.724;50.180;2023-02-01T13:03:19;37.40;33.00;17.00
55449;PMS5003;41318;58.724;50.180;2023-02-01T13:08:44;41.60;38.60;18.40
55449;PMS5003;41318;58.724;50.180;2023-02-01T13:11:19;38.60;37.20;22.20
55449;PMS5003;41318;58.724;50.180;2023-02-01T13:21:49;40.80;38.40;26.20
55449;PMS5003;41318;58.724;50.180;2023-02-01T13:24:42;42.20;40.40;26.20
55449;PMS5003;41318;58.724;50.180;2023-02-01T13:27:34;39.20;38.20;24.40
55449;PMS5003;41318;58.724;50.180;2023-02-01T13:30:20;45.80;42.20;23.00
55449;PMS5003;41318;58.724;50.180;2023-02-01T13:38:38;47.00;42.80;18.20
55449;PMS5003;41318;58.724;50.180;2023-02-01T13:44:15;47.40;43.00;24.80
55449;PMS5003;41318;58.724;50.180;2023-02-01T13:46:47;55.20;48.40;27.60
55449;PMS5003;41318;58.724;50.180;2023-02-01T13:53:46;42.60;38.60;21.20
55449;PMS5003;41318;58.724;50.180;2023-02-01T13:56:18;47.40;41.20;23.20
55449;PMS5003;41318;58.724;50.180;2023-02-01T14:05:02;37.60;34.20;22.40
55449;PMS5003;41318;58.724;50.180;2023-02-01T14:07:33;42.40;38.20;21.80
55449;PMS5003;41318;58.724;50.180;2023-02-01T14:16:11;39.20;37.20;20.00
55449;PMS5003;41318;58.724;50.180;2023-02-01T14:21:25;52.20;44.20;24.20
55449;PMS5003;41318;58.724;50.180;2023-02-01T14:26:42;45.80;42.00;25.80
55449;PMS5003;41318;58.724;50.180;2023-02-01T14:36:51;42.25;39.75;20.75
55449;PMS5003;41318;58.724;50.180;2023-02-01T14:39:31;39.60;37.40;20.80
55449;PMS5003;41318;58.724;50.180;2023-02-01T14:42:45;39.40;37.80;20.80
55449;PMS5003;41318;58.724;50.180;2023-02-01T14:55:49;37.00;36.60;24.20
55449;PMS5003;41318;58.724;50.180;2023-02-01T15:00:56;52.20;43.20;24.80
55449;PMS5003;41318;58.724;50.180;2023-02-01T15:06:18;47.20;38.40;24.00
55449;PMS5003;41318;58.724;50.180;2023-02-01T15:08:59;54.80;42.60;21.40
55449;PMS5003;41318;58.724;50.180;2023-02-01T15:11:31;25.20;25.20;12.00
55449;PMS5003;41318;58.724;50.180;2023-02-01T15:14:21;51.20;42.20;24.00
55449;PMS5003;41318;58.724;50.180;2023-02-01T15:16:52;42.25;38.00;23.50
55449;PMS5003;41318;58.724;50.180;2023-02-01T15:23:49;42.80;35.40;17.00
55449;PMS5003;41318;58.724;50.180;2023-02-01T15:26:39;122.50;99.75;48.75
55449;PMS5003;41318;58.724;50.180;2023-02-01T15:29:11;53.00;42.00;27.00
55449;PMS5003;41318;58.724;50.180;2023-02-01T15:31:46;51.40;42.40;23.20
55449;PMS5003;41318;58.724;50.180;2023-02-01T15:34:18;46.60;42.40;23.20
55449;PMS5003;41318;58.724;50.180;2023-02-01T15:36:49;40.40;37.60;24.40
55449;PMS5003;41318;58.724;50.180;2023-02-01T15:43:47;47.40;43.60;23.20
55449;PMS5003;41318;58.724;50.180;2023-02-01T15:49:32;36.40;35.00;22.40
55449;PMS5003;41318;58.724;50.180;2023-02-01T15:52:01;50.20;45.00;27.20
55449;PMS5003;41318;58.724;50.180;2023-02-01T15:54:41;50.20;43.20;23.00
55449;PMS5003;41318;58.724;50.180;2023-02-01T15:57:22;46.00;43.20;27.00
55449;PMS5003;41318;58.724;50.180;2023-02-01T16:00:04;29.20;26.40;18.60
55449;PMS5003;41318;58.724;50.180;2023-02-01T16:02:53;41.80;39.20;20.80
55449;PMS5003;41318;58.724;50.180;2023-02-01T16:08:23;52.60;44.60;26.20
55449;PMS5003;41318;58.724;50.180;2023-02-01T16:10:59;39.00;34.60;19.60
55449;PMS5003;41318;58.724;50.180;2023-02-01T16:17:56;40.00;33.20;20.20
55449;PMS5003;41318;58.724;50.180;2023-02-01T16:20:30;30.60;30.60;16.20
55449;PMS5003;41318;58.724;50.180;2023-02-01T16:23:02;42.00;37.60;21.40
55449;PMS5003;41318;58.724;50.180;2023-02-01T16:25:33;41.20;37.60;18.00
55449;PMS5003;41318;58.724;50.180;2023-02-01T16:28:04;36.00;36.00;23.40
55449;PMS5003;41318;58.724;50.180;2023-02-01T16:30:36;55.40;44.60;27.20
55449;PMS5003;41318;58.724;50.180;2023-02-01T16:33:09;40.80;37.80;20.00
55449;PMS5003;41318;58.724;50.180;2023-02-01T16:40:05;41.00;39.80;23.20
55449;PMS5003;41318;58.724;50.180;2023-02-01T16:42:39;35.60;34.80;18.20
55449;PMS5003;41318;58.724;50.180;2023-02-01T16:45:11;36.20;33.00;16.60
55449;PMS5003;41318;58.724;50.180;2023-02-01T16:47:46;52.00;43.40;25.60
55449;PMS5003;41318;58.724;50.180;2023-02-01T16:50:20;38.80;35.80;20.60
55449;PMS5003;41318;58.724;50.180;2023-02-01T16:52:52;51.20;44.20;26.00
55449;PMS5003;41318;58.724;50.180;2023-02-01T16:55:41;34.40;33.20;18.40
55449;PMS5003;41318;58.724;50.180;2023-02-01T16:58:14;57.00;48.40;27.20
55449;PMS5003;41318;58.724;50.180;2023-02-01T17:00:45;35.60;35.00;20.20
55449;PMS5003;41318;58.724;50.180;2023-02-01T17:03:16;46.40;42.20;22.80
55449;PMS5003;41318;58.724;50.180;2023-02-01T17:05:49;32.00;31.20;15.80
55449;PMS5003;41318;58.724;50.180;2023-02-01T17:08:42;32.00;26.60;12.00
55449;PMS5003;41318;58.724;50.180;2023-02-01T17:11:12;38.20;37.00;22.00
55449;PMS5003;41318;58.724;50.180;2023-02-01T17:13:43;35.80;33.20;14.40
55449;PMS5003;41318;58.724;50.180;2023-02-01T17:16:20;77.80;60.20;36.20
55449;PMS5003;41318;58.724;50.180;2023-02-01T17:19:12;42.20;38.60;19.00
55449;PMS5003;41318;58.724;50.180;2023-02-01T17:21:45;41.40;34.00;17.00
55449;PMS5003;41318;58.724;50.180;2023-02-01T17:24:18;35.20;34.00;19.60
55449;PMS5003;41318;58.724;50.180;2023-02-01T17:26:49;37.40;34.40;18.60
55449;PMS5003;41318;58.724;50.180;2023-02-01T17:29:21;36.00;36.00;21.80
55449;PMS5003;41318;58.724;50.180;2023-02-01T17:31:53;57.80;44.20;25.20
55449;PMS5003;41318;58.724;50.180;2023-02-01T17:34:24;47.80;42.20;25.80
55449;PMS5003;41318;58.724;50.180;2023-02-01T17:36:55;53.20;44.80;30.00
55449;PMS5003;41318;58.724;50.180;2023-02-01T17:39:26;46.50;41.25;24.25
55449;PMS5003;41318;58.724;50.180;2023-02-01T17:42:16;33.80;32.60;20.20
55449;PMS5003;41318;58.724;50.180;2023-02-01T17:44:47;41.80;38.20;20.40
55449;PMS5003;41318;58.724;50.180;2023-02-01T17:47:18;36.80;34.60;22.00
55449;PMS5003;41318;58.724;50.180;2023-02-01T17:50:10;39.50;37.00;19.75
55449;PMS5003;41318;58.724;50.180;2023-02-01T17:52:47;40.00;37.80;20.60
55449;PMS5003;41318;58.724;50.180;2023-02-01T17:55:20;42.00;36.20;18.40
55449;PMS5003;41318;58.724;50.180;2023-02-01T17:57:53;14.20;14.20;3.20
55449;PMS5003;41318;58.724;50.180;2023-02-01T18:00:24;53.20;46.40;26.80
55449;PMS5003;41318;58.724;50.180;2023-02-01T18:02:55;38.20;38.20;25.40
55449;PMS5003;41318;58.724;50.180;2023-02-01T18:05:39;16.40;11.40;0.80
55449;PMS5003;41318;58.724;50.180;2023-02-01T18:08:12;42.20;35.00;15.40
55449;PMS5003;41318;58.724;50.180;2023-02-01T18:11:05;50.00;43.60;22.80
55449;PMS5003;41318;58.724;50.180;2023-02-01T18:13:50;33.80;32.00;22.60
55449;PMS5003;41318;58.724;50.180;2023-02-01T18:16:28;37.80;35.20;17.60
55449;PMS5003;41318;58.724;50.180;2023-02-01T18:18:59;38.20;32.40;18.60
55449;PMS5003;41318;58.724;50.180;2023-02-01T18:21:52;51.20;37.80;13.20
55449;PMS5003;41318;58.724;50.180;2023-02-01T18:24:29;33.80;33.40;17.40
55449;PMS5003;41318;58.724;50.180;2023-02-01T18:27:03;66.00;53.60;29.00